Time;durP1;ratioP1;P1;durP2;ratioP2;P2;SDS_P1;SDS_P2;PMS_P1;PMS_P2;Temp;Humidity;BMP_temperature;BMP_pressure;BME280_temperature;BME280_humidity;BME280_pressure;Samples;Min_cycle;Max_cycle;Signal;HPM_P1;HPM_P2
2023/12/03 00:00:08;;;;;;;17.15;11.15;;;-2.80;99.90;;;;;;5068672;28;20238;-76
2023/12/03 00:02:36;;;;;;;17.90;11.20;;;-2.80;99.90;;;;;;5068420;28;20969;-76
2023/12/03 00:05:02;;;;;;;19.23;11.50;;;-2.70;99.90;;;;;;5067085;28;20847;-75
2023/12/03 00:07:29;;;;;;;16.58;11.02;;;-2.70;99.90;;;;;;5068666;28;20191;-75
2023/12/03 00:09:55;;;;;;;19.20;11.73;;;-2.70;99.90;;;;;;5068371;28;20175;-76
2023/12/03 00:12:21;;;;;;;17.75;11.50;;;-2.80;99.90;;;;;;5068365;28;20203;-76
2023/12/03 00:14:47;;;;;;;17.03;11.87;;;-2.70;99.90;;;;;;5068301;28;20672;-76
2023/12/03 00:17:12;;;;;;;16.60;10.50;;;-2.70;99.90;;;;;;5071041;28;20447;-77
2023/12/03 00:19:40;;;;;;;16.43;10.77;;;-2.70;99.90;;;;;;5072224;28;20226;-76
2023/12/03 00:22:06;;;;;;;17.33;10.73;;;-2.80;99.90;;;;;;5072135;28;20217;-76
2023/12/03 00:24:31;;;;;;;18.38;10.63;;;-2.80;99.90;;;;;;5070623;28;20186;-76
2023/12/03 00:26:58;;;;;;;14.53;9.80;;;-2.90;99.90;;;;;;5072387;28;20179;-76
2023/12/03 00:29:24;;;;;;;14.95;9.98;;;-2.90;99.90;;;;;;5072251;28;20191;-76
2023/12/03 00:31:50;;;;;;;16.50;10.20;;;-2.90;99.90;;;;;;5070938;28;20809;-75
2023/12/03 00:34:15;;;;;;;16.10;10.50;;;-2.90;99.90;;;;;;5070699;28;20717;-76
2023/12/03 00:36:41;;;;;;;16.17;9.17;;;-2.90;99.90;;;;;;5070519;28;20284;-76
2023/12/03 00:39:06;;;;;;;14.53;10.10;;;-2.80;99.90;;;;;;5070480;28;20246;-76
2023/12/03 00:41:32;;;;;;;12.50;9.20;;;-2.70;99.90;;;;;;5070582;28;20284;-75
2023/12/03 00:43:58;;;;;;;15.07;10.23;;;-2.70;99.90;;;;;;5070634;28;20634;-76
2023/12/03 00:46:23;;;;;;;10.90;8.87;;;-2.70;99.90;;;;;;5070236;28;20198;-76
2023/12/03 00:48:49;;;;;;;16.40;10.90;;;-2.70;99.90;;;;;;5037096;28;20209;-76
2023/12/03 00:51:15;;;;;;;18.30;10.33;;;-2.70;99.90;;;;;;5071759;28;20199;-75
2023/12/03 00:53:42;;;;;;;18.38;11.18;;;-2.70;99.90;;;;;;5071678;28;20214;-76
2023/12/03 00:56:08;;;;;;;17.77;11.77;;;-2.70;99.90;;;;;;5071896;28;20186;-76
2023/12/03 00:58:34;;;;;;;16.58;11.60;;;-2.60;99.90;;;;;;5071632;28;20202;-75
2023/12/03 01:01:00;;;;;;;17.90;10.97;;;-2.60;99.90;;;;;;5070266;28;20684;-77
2023/12/03 01:03:26;;;;;;;18.50;10.97;;;-2.50;99.90;;;;;;5071718;28;20579;-75
2023/12/03 01:05:52;;;;;;;11.90;8.50;;;-2.60;99.90;;;;;;5070843;28;20787;-75
2023/12/03 01:08:18;;;;;;;14.00;9.87;;;-2.60;99.90;;;;;;5071596;28;20175;-77
2023/12/03 01:10:44;;;;;;;17.45;11.43;;;-2.60;99.90;;;;;;5070484;28;20448;-76
2023/12/03 01:13:09;;;;;;;15.40;9.83;;;-2.60;99.90;;;;;;5071434;28;20772;-77
2023/12/03 01:15:35;;;;;;;14.80;10.30;;;-2.70;99.90;;;;;;5071490;28;20575;-77
2023/12/03 01:18:00;;;;;;;16.20;10.17;;;-2.70;99.90;;;;;;5071291;28;20193;-76
2023/12/03 01:20:26;;;;;;;13.60;9.70;;;-2.60;99.90;;;;;;5071145;28;20214;-76
2023/12/03 01:22:51;;;;;;;13.60;9.57;;;-2.60;99.90;;;;;;5071312;28;20260;-77
2023/12/03 01:25:17;;;;;;;15.53;9.43;;;-2.60;99.90;;;;;;5070264;28;20187;-77
2023/12/03 01:27:43;;;;;;;13.40;9.10;;;-2.60;99.90;;;;;;5069891;28;20183;-76
2023/12/03 01:30:09;;;;;;;12.47;8.80;;;-2.60;99.90;;;;;;5072072;28;20213;-77
2023/12/03 01:32:34;;;;;;;14.68;9.93;;;-2.50;99.90;;;;;;5071394;28;20581;-77
2023/12/03 01:35:00;;;;;;;18.00;11.40;;;-2.50;99.90;;;;;;5070143;28;20187;-76
2023/12/03 01:37:26;;;;;;;20.60;10.20;;;-2.40;99.90;;;;;;5070594;28;20215;-77
2023/12/03 01:39:51;;;;;;;14.03;9.60;;;-2.50;99.90;;;;;;5070034;28;20217;-76
2023/12/03 01:42:17;;;;;;;13.27;8.00;;;-2.50;99.90;;;;;;5070122;28;20206;-76
2023/12/03 01:44:42;;;;;;;14.27;8.70;;;-2.60;99.90;;;;;;5070367;28;20206;-76
2023/12/03 01:47:09;;;;;;;14.70;8.80;;;-2.50;99.90;;;;;;5069970;28;20190;-76
2023/12/03 01:49:35;;;;;;;14.02;9.63;;;-2.50;99.90;;;;;;5053373;28;20252;-76
2023/12/03 01:52:01;;;;;;;16.48;10.20;;;-2.50;99.90;;;;;;5053406;28;20214;-76
2023/12/03 01:54:37;;;;;;;14.40;9.60;;;-2.40;99.90;;;;;;5071366;28;20230;-77
2023/12/03 01:57:03;;;;;;;12.15;8.95;;;-2.50;99.90;;;;;;5071265;28;20185;-76
2023/12/03 01:59:31;;;;;;;13.80;9.02;;;-2.50;99.90;;;;;;5071465;28;20195;-76
2023/12/03 02:01:56;;;;;;;11.30;7.97;;;-2.50;99.90;;;;;;5069832;28;20201;-76
2023/12/03 02:04:22;;;;;;;13.27;8.70;;;-2.50;99.90;;;;;;5069341;28;20187;-75
2023/12/03 02:06:48;;;;;;;14.60;8.97;;;-2.50;99.90;;;;;;5069331;28;20194;-75
2023/12/03 02:09:16;;;;;;;15.10;8.52;;;-2.50;99.90;;;;;;5069426;28;21040;-76
2023/12/03 02:11:43;;;;;;;14.48;8.98;;;-2.50;99.90;;;;;;5070442;28;20191;-75
2023/12/03 02:14:09;;;;;;;13.23;8.48;;;-2.40;99.90;;;;;;5069101;28;20209;-77
2023/12/03 02:16:35;;;;;;;12.93;8.77;;;-2.40;99.90;;;;;;5068868;28;20190;-75
2023/12/03 02:19:02;;;;;;;15.97;10.10;;;-2.50;99.90;;;;;;5070260;28;20211;-75
2023/12/03 02:21:28;;;;;;;14.38;9.15;;;-2.50;99.90;;;;;;5068654;28;20175;-75
2023/12/03 02:23:53;;;;;;;16.05;9.65;;;-2.50;99.90;;;;;;5070371;28;20249;-76
2023/12/03 02:26:19;;;;;;;12.37;8.57;;;-2.50;99.90;;;;;;5070367;28;20226;-76
2023/12/03 02:28:44;;;;;;;12.10;8.93;;;-2.60;99.90;;;;;;5069174;28;20741;-77
2023/12/03 02:31:10;;;;;;;14.60;9.43;;;-2.60;99.90;;;;;;5070055;28;20176;-77
2023/12/03 02:33:36;;;;;;;13.60;8.87;;;-2.60;99.90;;;;;;5070330;28;20214;-77
2023/12/03 02:36:02;;;;;;;13.37;7.97;;;-2.60;99.90;;;;;;5070013;28;20557;-76
2023/12/03 02:38:27;;;;;;;15.20;9.57;;;-2.60;99.90;;;;;;5051370;28;20448;-77
2023/12/03 02:40:56;;;;;;;14.10;9.70;;;-2.60;99.90;;;;;;5070022;28;20588;-76
2023/12/03 02:43:22;;;;;;;13.65;9.45;;;-2.60;99.90;;;;;;5070273;28;20203;-77
2023/12/03 02:45:47;;;;;;;12.93;9.20;;;-2.60;99.90;;;;;;5070085;28;20589;-77
2023/12/03 02:48:13;;;;;;;13.47;8.50;;;-2.60;99.90;;;;;;5070355;28;20179;-77
2023/12/03 02:50:38;;;;;;;13.63;8.80;;;-2.60;99.90;;;;;;5051972;28;20189;-76
2023/12/03 02:53:04;;;;;;;16.73;9.80;;;-2.60;99.90;;;;;;5070154;28;20203;-77
2023/12/03 02:55:30;;;;;;;15.37;8.80;;;-2.60;99.90;;;;;;5070092;28;20234;-76
2023/12/03 02:57:55;;;;;;;13.07;9.30;;;-2.60;99.90;;;;;;5068673;28;20183;-77
2023/12/03 03:00:21;;;;;;;14.30;9.87;;;-2.60;99.90;;;;;;5070146;28;20227;-75
2023/12/03 03:02:46;;;;;;;13.40;9.40;;;-2.60;99.90;;;;;;5070190;28;20202;-76
2023/12/03 03:05:12;;;;;;;14.37;9.53;;;-2.50;99.90;;;;;;5070540;28;21000;-75
2023/12/03 03:07:38;;;;;;;13.90;9.40;;;-2.50;99.90;;;;;;5035759;28;20187;-75
2023/12/03 03:10:03;;;;;;;13.33;9.10;;;-2.50;99.90;;;;;;5070321;28;20557;-75
2023/12/03 03:12:29;;;;;;;15.50;9.83;;;-2.50;99.90;;;;;;5069611;28;20206;-75
2023/12/03 03:14:55;;;;;;;17.00;10.07;;;-2.50;99.90;;;;;;5069792;28;20836;-75
2023/12/03 03:17:20;;;;;;;15.63;9.50;;;-2.60;99.90;;;;;;5070062;28;20187;-75
2023/12/03 03:19:46;;;;;;;17.50;10.63;;;-2.60;99.90;;;;;;5069910;28;20293;-75
2023/12/03 03:22:12;;;;;;;16.13;10.17;;;-2.60;99.90;;;;;;5069803;28;20219;-76
2023/12/03 03:24:39;;;;;;;20.52;12.05;;;-2.60;99.90;;;;;;5070244;28;20561;-76
2023/12/03 03:27:05;;;;;;;16.02;10.38;;;-2.60;99.90;;;;;;5069721;28;20583;-76
2023/12/03 03:29:30;;;;;;;21.83;10.60;;;-2.60;99.90;;;;;;5069637;28;20195;-76
2023/12/03 03:31:56;;;;;;;17.40;11.70;;;-2.60;99.90;;;;;;5069477;28;20472;-76
2023/12/03 03:34:21;;;;;;;15.77;9.90;;;-2.60;99.90;;;;;;5068493;28;20322;-76
2023/12/03 03:36:47;;;;;;;12.40;9.10;;;-2.60;99.90;;;;;;5068487;28;20179;-77
2023/12/03 03:39:13;;;;;;;16.00;9.87;;;-2.40;99.90;;;;;;5069663;28;20210;-76
2023/12/03 03:41:38;;;;;;;16.43;10.77;;;-2.60;99.90;;;;;;5069606;28;20233;-76
2023/12/03 03:44:04;;;;;;;18.00;11.30;;;-2.60;99.90;;;;;;5068081;28;20228;-76
2023/12/03 03:46:29;;;;;;;16.50;10.00;;;-2.60;99.90;;;;;;5069433;28;20526;-76
2023/12/03 03:48:55;;;;;;;17.90;10.80;;;-2.70;99.90;;;;;;5069995;28;20209;-77
2023/12/03 03:51:20;;;;;;;16.47;10.30;;;-2.70;99.90;;;;;;5070959;28;20270;-76
2023/12/03 03:53:46;;;;;;;15.60;9.90;;;-2.70;99.90;;;;;;5070916;28;20191;-78
2023/12/03 03:56:12;;;;;;;14.30;10.33;;;-2.70;99.90;;;;;;5072127;28;20187;-77
2023/12/03 03:58:38;;;;;;;15.60;9.80;;;-2.80;99.90;;;;;;5074419;28;20571;-78
2023/12/03 04:01:05;;;;;;;16.90;10.33;;;-2.80;99.90;;;;;;5068687;28;20214;-77
2023/12/03 04:03:30;;;;;;;16.25;10.52;;;-2.70;99.90;;;;;;5069152;28;20433;-76
2023/12/03 04:05:59;;;;;;;18.50;10.70;;;-2.90;99.90;;;;;;5068125;28;20814;-76
2023/12/03 04:08:24;;;;;;;16.60;10.38;;;-2.90;99.90;;;;;;5069148;28;20260;-75
2023/12/03 04:10:50;;;;;;;17.23;10.10;;;-2.80;99.90;;;;;;5068728;28;20658;-75
2023/12/03 04:13:15;;;;;;;14.87;9.80;;;-2.90;99.90;;;;;;5068550;28;20202;-75
2023/12/03 04:15:41;;;;;;;16.13;10.00;;;-3.00;99.90;;;;;;5069729;28;20187;-79
2023/12/03 04:18:06;;;;;;;14.90;10.10;;;-3.10;99.90;;;;;;5069707;28;20721;-77
2023/12/03 04:20:33;;;;;;;15.33;10.03;;;-3.20;99.90;;;;;;5069189;28;20268;-78
2023/12/03 04:22:58;;;;;;;18.67;9.80;;;-3.30;99.90;;;;;;5051472;28;20396;-78
2023/12/03 04:25:24;;;;;;;14.93;9.37;;;-3.40;99.90;;;;;;5069630;28;20269;-80
2023/12/03 04:27:49;;;;;;;15.23;8.67;;;-3.50;99.90;;;;;;5051921;28;20183;-77
2023/12/03 04:30:15;;;;;;;12.93;8.43;;;-3.80;99.90;;;;;;5069564;28;20226;-77
2023/12/03 04:32:40;;;;;;;13.80;8.30;;;-3.90;99.90;;;;;;5067734;28;20722;-76
2023/12/03 04:35:08;;;;;;;11.67;7.57;;;-4.00;99.90;;;;;;5068871;28;20183;-78
2023/12/03 04:37:33;;;;;;;10.65;7.57;;;-4.10;99.90;;;;;;5068061;28;20186;-81
2023/12/03 04:39:59;;;;;;;17.97;7.60;;;-4.30;99.90;;;;;;5051224;28;20213;-77
2023/12/03 04:42:25;;;;;;;12.53;8.43;;;-4.40;99.90;;;;;;5071260;28;20203;-77
2023/12/03 04:44:50;;;;;;;13.67;7.97;;;-4.50;99.90;;;;;;5069231;28;20249;-78
2023/12/03 04:47:16;;;;;;;12.87;8.20;;;-4.50;99.90;;;;;;5051159;28;20631;-81
2023/12/03 04:49:41;;;;;;;12.30;8.30;;;-4.50;99.90;;;;;;5050783;28;20203;-81
2023/12/03 04:52:07;;;;;;;11.93;7.70;;;-4.60;99.90;;;;;;5067684;28;20314;-78
2023/12/03 04:54:33;;;;;;;15.77;8.30;;;-4.70;99.90;;;;;;5050416;28;20213;-77
2023/12/03 04:56:58;;;;;;;15.90;8.50;;;-4.90;99.90;;;;;;5067627;28;20236;-76
2023/12/03 04:59:24;;;;;;;15.27;8.20;;;-4.90;99.90;;;;;;5068060;28;20829;-76
2023/12/03 05:01:49;;;;;;;14.77;9.00;;;-5.00;99.90;;;;;;5069371;28;20203;-75
2023/12/03 05:04:15;;;;;;;14.90;9.10;;;-5.10;99.90;;;;;;5071923;28;20189;-79
2023/12/03 05:06:40;;;;;;;12.97;7.70;;;-5.10;99.90;;;;;;5070655;28;20191;-79
2023/12/03 05:09:06;;;;;;;13.07;8.93;;;-5.20;99.90;;;;;;5057417;28;20191;-79
2023/12/03 05:11:32;;;;;;;14.47;7.30;;;-5.30;99.90;;;;;;5041863;28;20301;-80
2023/12/03 05:13:58;;;;;;;12.40;8.35;;;-5.40;99.90;;;;;;5057180;28;20568;-76
2023/12/03 05:16:23;;;;;;;13.57;8.50;;;-5.40;99.90;;;;;;5069785;28;20191;-76
2023/12/03 05:18:49;;;;;;;11.80;7.10;;;-5.60;99.90;;;;;;5073520;28;20291;-80
2023/12/03 05:21:14;;;;;;;12.77;8.37;;;-5.60;99.90;;;;;;5060444;28;20211;-79
2023/12/03 05:23:40;;;;;;;11.50;7.23;;;-5.60;99.90;;;;;;5074434;28;20609;-81
2023/12/03 05:26:06;;;;;;;11.80;7.33;;;-5.60;99.90;;;;;;5054841;28;20187;-78
2023/12/03 05:28:31;;;;;;;13.97;8.13;;;-5.70;99.90;;;;;;5054603;28;20391;-80
2023/12/03 05:30:57;;;;;;;13.03;7.80;;;-5.90;99.90;;;;;;5070784;28;20962;-80
2023/12/03 05:33:22;;;;;;;15.87;9.70;;;-6.00;99.90;;;;;;5055183;28;20217;-77
2023/12/03 05:35:48;;;;;;;17.63;10.93;;;-5.90;99.90;;;;;;5071398;28;20189;-78
2023/12/03 05:38:14;;;;;;;13.53;8.03;;;-5.90;99.90;;;;;;5054471;28;20546;-78
2023/12/03 05:40:39;;;;;;;12.50;7.80;;;-6.00;99.90;;;;;;5073622;28;20246;-78
2023/12/03 05:43:05;;;;;;;12.53;8.07;;;-6.10;99.90;;;;;;5070684;28;20210;-79
2023/12/03 05:45:31;;;;;;;13.07;7.37;;;-6.10;99.90;;;;;;5054071;28;20183;-78
2023/12/03 05:47:56;;;;;;;12.13;7.77;;;-6.10;99.90;;;;;;5073998;28;20183;-81
2023/12/03 05:50:22;;;;;;;11.70;7.00;;;-6.10;99.90;;;;;;5036832;28;20223;-78
2023/12/03 05:52:48;;;;;;;12.23;8.17;;;-6.10;99.90;;;;;;5070098;28;20212;-78
2023/12/03 05:55:13;;;;;;;10.87;7.30;;;-6.10;99.90;;;;;;5071178;28;20203;-78
2023/12/03 05:57:39;;;;;;;12.33;7.77;;;-6.10;99.90;;;;;;5072279;28;20854;-79
2023/12/03 06:00:06;;;;;;;10.43;6.60;;;-6.30;99.90;;;;;;5037701;28;20745;-79
2023/12/03 06:02:34;;;;;;;15.35;8.38;;;-6.40;99.90;;;;;;5054631;28;20203;-80
2023/12/03 06:05:01;;;;;;;14.95;7.50;;;-6.40;99.90;;;;;;5055141;28;20186;-78
2023/12/03 06:07:27;;;;;;;14.65;7.15;;;-6.30;99.90;;;;;;5054170;28;20175;-79
2023/12/03 06:09:53;;;;;;;11.87;7.00;;;-6.40;99.90;;;;;;5073502;28;20194;-82
2023/12/03 06:12:18;;;;;;;13.43;7.70;;;-6.30;99.90;;;;;;5054344;28;20209;-80
2023/12/03 06:14:44;;;;;;;10.50;7.33;;;-6.20;99.90;;;;;;5054450;28;20270;-79
2023/12/03 06:17:09;;;;;;;12.60;7.93;;;-6.30;99.90;;;;;;5037432;28;20683;-78
2023/12/03 06:19:35;;;;;;;14.57;7.23;;;-6.30;99.90;;;;;;5054837;28;20319;-81
2023/12/03 06:22:01;;;;;;;10.20;6.80;;;-6.40;99.90;;;;;;5054897;28;20216;-81
2023/12/03 06:24:26;;;;;;;13.40;7.30;;;-6.60;99.90;;;;;;5071422;28;20192;-79
2023/12/03 06:26:54;;;;;;;11.40;7.07;;;-6.70;99.90;;;;;;5070157;28;20185;-78
2023/12/03 06:29:19;;;;;;;12.48;7.38;;;-6.80;99.90;;;;;;5070716;28;20224;-78
2023/12/03 06:31:47;;;;;;;15.60;8.30;;;-6.80;99.90;;;;;;5072460;28;20222;-79
2023/12/03 06:34:12;;;;;;;10.38;6.68;;;-6.80;99.90;;;;;;5071745;28;20215;-77
2023/12/03 06:36:38;;;;;;;12.30;7.00;;;-6.70;99.90;;;;;;5071286;28;20194;-79
2023/12/03 06:39:07;;;;;;;16.57;6.73;;;-6.70;99.90;;;;;;5069940;28;20924;-81
2023/12/03 06:41:33;;;;;;;11.60;6.75;;;-6.80;99.90;;;;;;5071656;28;20201;-79
2023/12/03 06:43:59;;;;;;;10.27;6.70;;;-6.80;99.90;;;;;;5069935;28;20210;-79
2023/12/03 06:46:24;;;;;;;14.33;7.73;;;-6.80;99.90;;;;;;5069776;28;20668;-78
2023/12/03 06:48:50;;;;;;;9.77;6.30;;;-6.70;99.90;;;;;;5069704;28;20272;-81
2023/12/03 06:51:15;;;;;;;8.87;6.40;;;-6.70;99.90;;;;;;5069913;28;20206;-77
2023/12/03 06:53:41;;;;;;;10.43;6.60;;;-6.70;99.90;;;;;;5036468;28;20198;-78
2023/12/03 06:56:11;;;;;;;11.20;7.10;;;-6.70;99.90;;;;;;5071673;28;20182;-78
2023/12/03 06:58:36;;;;;;;10.32;6.53;;;-6.60;99.90;;;;;;5069685;28;20182;-79
2023/12/03 07:01:02;;;;;;;11.57;7.37;;;-6.60;99.90;;;;;;5071228;28;20752;-78
2023/12/03 07:03:31;;;;;;;8.80;5.90;;;-6.60;99.90;;;;;;5069525;28;20482;-78
2023/12/03 07:05:59;;;;;;;10.38;7.15;;;-6.50;99.90;;;;;;5072149;28;20239;-79
2023/12/03 07:08:24;;;;;;;9.40;7.10;;;-6.50;99.90;;;;;;5072202;28;20850;-79
2023/12/03 07:10:50;;;;;;;8.63;6.33;;;-6.40;99.90;;;;;;5073240;28;20182;-79
2023/12/03 07:13:16;;;;;;;11.43;8.20;;;-6.40;99.90;;;;;;5071891;28;20214;-79
2023/12/03 07:15:41;;;;;;;16.90;8.77;;;-6.30;99.90;;;;;;5054433;28;20194;-78
2023/12/03 07:18:07;;;;;;;12.23;8.07;;;-6.00;99.90;;;;;;5075244;28;20281;-79
2023/12/03 07:20:32;;;;;;;16.20;7.57;;;-6.10;99.90;;;;;;5070315;28;20206;-78
2023/12/03 07:22:58;;;;;;;10.90;6.60;;;-6.10;99.90;;;;;;5070055;28;20298;-78
2023/12/03 07:25:24;;;;;;;13.37;7.60;;;-6.00;99.90;;;;;;5070270;28;20197;-78
2023/12/03 07:27:49;;;;;;;12.77;7.60;;;-5.90;99.90;;;;;;5053657;28;20212;-79
2023/12/03 07:30:15;;;;;;;10.60;7.13;;;-5.90;99.90;;;;;;5069276;28;20183;-80
2023/12/03 07:32:41;;;;;;;10.00;6.73;;;-5.80;99.90;;;;;;5071027;28;20304;-79
2023/12/03 07:35:07;;;;;;;12.27;7.93;;;-5.90;99.90;;;;;;5070179;28;20190;-78
2023/12/03 07:37:32;;;;;;;14.48;8.32;;;-5.80;99.90;;;;;;5053923;28;20201;-80
2023/12/03 07:39:58;;;;;;;14.13;7.50;;;-5.80;99.90;;;;;;5035812;28;20277;-78
2023/12/03 07:42:26;;;;;;;14.20;8.20;;;-5.80;99.90;;;;;;5069465;28;20217;-78
2023/12/03 07:44:52;;;;;;;11.52;8.23;;;-5.80;99.90;;;;;;5069814;28;20187;-78
2023/12/03 07:47:18;;;;;;;10.67;6.47;;;-5.80;99.90;;;;;;5069670;28;20190;-79
2023/12/03 07:49:43;;;;;;;11.20;6.53;;;-5.70;99.90;;;;;;5070215;28;20285;-78
2023/12/03 07:52:09;;;;;;;9.67;6.30;;;-5.60;99.90;;;;;;5068775;28;21097;-79
2023/12/03 07:54:35;;;;;;;12.03;7.40;;;-5.50;99.90;;;;;;5069902;28;20233;-78
2023/12/03 07:57:00;;;;;;;11.20;7.10;;;-5.30;99.90;;;;;;5069892;28;20202;-78
2023/12/03 07:59:26;;;;;;;12.17;7.10;;;-5.10;99.90;;;;;;5069668;28;20202;-77
2023/12/03 08:01:53;;;;;;;13.30;8.30;;;-4.90;99.90;;;;;;5069445;28;20210;-77
2023/12/03 08:04:19;;;;;;;12.45;7.72;;;-4.70;99.90;;;;;;5069724;28;20203;-79
2023/12/03 08:06:44;;;;;;;10.53;7.17;;;-4.30;99.90;;;;;;5071233;28;20650;-79
2023/12/03 08:09:11;;;;;;;10.63;7.20;;;-3.80;99.90;;;;;;5069696;28;20171;-78
2023/12/03 08:11:37;;;;;;;9.30;7.72;;;-2.20;99.90;;;;;;5071006;28;20202;-82
2023/12/03 08:14:03;;;;;;;12.07;7.57;;;-0.80;99.90;;;;;;5052166;28;20557;-78
2023/12/03 08:16:29;;;;;;;9.90;6.47;;;0.70;99.90;;;;;;5069523;28;20677;-79
2023/12/03 08:18:54;;;;;;;11.23;7.40;;;1.80;99.90;;;;;;5069777;28;20426;-77
2023/12/03 08:21:20;;;;;;;8.13;6.73;;;2.90;99.90;;;;;;5069639;28;20179;-77
2023/12/03 08:23:46;;;;;;;10.20;7.30;;;4.00;99.90;;;;;;5068613;28;20285;-81
2023/12/03 08:26:11;;;;;;;8.20;7.37;;;4.60;99.90;;;;;;5068507;28;20194;-81
2023/12/03 08:28:37;;;;;;;10.00;8.43;;;4.90;96.60;;;;;;5068723;28;20187;-80
2023/12/03 08:31:03;;;;;;;9.37;7.90;;;5.90;97.80;;;;;;5051575;28;20191;-79
2023/12/03 08:33:29;;;;;;;8.97;7.27;;;6.20;95.80;;;;;;5069618;28;20207;-79
2023/12/03 08:35:56;;;;;;;11.37;8.73;;;6.20;93.60;;;;;;5051711;28;20188;-78
2023/12/03 08:38:21;;;;;;;14.40;11.53;;;6.80;96.00;;;;;;5072439;28;20870;-79
2023/12/03 08:40:47;;;;;;;12.43;9.57;;;7.90;94.40;;;;;;5054797;28;20807;-80
2023/12/03 08:43:15;;;;;;;14.77;10.63;;;8.70;94.20;;;;;;5038131;28;20211;-79
2023/12/03 08:45:41;;;;;;;12.30;9.90;;;9.20;93.40;;;;;;5071126;28;20183;-77
2023/12/03 08:48:06;;;;;;;16.33;11.33;;;10.00;92.80;;;;;;5071018;28;20429;-79
2023/12/03 08:50:32;;;;;;;12.57;10.37;;;10.10;92.00;;;;;;5071050;28;20650;-79
2023/12/03 08:52:58;;;;;;;15.97;12.90;;;10.70;91.20;;;;;;5037368;28;20231;-80
2023/12/03 08:55:24;;;;;;;13.73;12.10;;;10.40;90.90;;;;;;5072252;28;20207;-80
2023/12/03 08:57:49;;;;;;;15.40;12.27;;;9.20;89.00;;;;;;5070814;28;20425;-80
2023/12/03 09:00:16;;;;;;;15.37;11.43;;;7.50;86.40;;;;;;5052871;28;20218;-77
2023/12/03 09:02:45;;;;;;;16.57;12.60;;;5.90;86.60;;;;;;5071635;28;20197;-78
2023/12/03 09:05:11;;;;;;;14.97;12.60;;;4.60;85.70;;;;;;5073120;28;20444;-78
2023/12/03 09:07:37;;;;;;;24.73;18.50;;;3.60;90.30;;;;;;5072644;28;20445;-80
2023/12/03 09:10:04;;;;;;;25.60;18.00;;;2.90;92.90;;;;;;5071569;28;21247;-78
2023/12/03 09:12:29;;;;;;;16.27;11.40;;;2.20;97.20;;;;;;5072323;28;20210;-78
2023/12/03 09:14:55;;;;;;;18.20;12.50;;;1.90;99.90;;;;;;5056376;28;20433;-79
2023/12/03 09:17:21;;;;;;;21.23;12.40;;;1.60;99.90;;;;;;5054973;28;20218;-78
2023/12/03 09:19:47;;;;;;;15.23;10.30;;;1.50;99.90;;;;;;5070882;28;20500;-81
2023/12/03 09:22:12;;;;;;;12.87;9.50;;;1.60;99.90;;;;;;5038032;28;20215;-80
2023/12/03 09:24:38;;;;;;;15.63;10.53;;;2.50;99.90;;;;;;5071120;28;20206;-80
2023/12/03 09:27:04;;;;;;;45.67;23.77;;;3.50;99.90;;;;;;5054373;28;20183;-79
2023/12/03 09:29:29;;;;;;;41.20;22.20;;;4.90;97.60;;;;;;5053418;28;20281;-81
2023/12/03 09:31:55;;;;;;;25.23;14.80;;;6.60;96.00;;;;;;5070977;28;20199;-77
2023/12/03 09:34:21;;;;;;;29.47;16.07;;;8.00;92.10;;;;;;5051819;28;20188;-78
2023/12/03 09:36:46;;;;;;;14.83;10.67;;;8.80;87.50;;;;;;5071426;28;20198;-78
2023/12/03 09:39:12;;;;;;;13.17;9.97;;;9.80;83.00;;;;;;5068355;28;20192;-77
2023/12/03 09:41:44;;;;;;;11.57;9.27;;;10.40;82.80;;;;;;5070348;28;20316;-79
2023/12/03 09:44:22;;;;;;;10.03;8.73;;;11.00;79.50;;;;;;5080442;28;20191;-81
2023/12/03 09:46:49;;;;;;;10.20;8.77;;;11.20;76.70;;;;;;5072803;28;20400;-81
2023/12/03 09:49:17;;;;;;;16.37;12.07;;;11.80;76.10;;;;;;5070828;28;20466;-82
2023/12/03 09:51:43;;;;;;;15.13;11.97;;;11.50;72.40;;;;;;5070445;28;20543;-80
2023/12/03 09:54:09;;;;;;;12.40;9.57;;;11.80;73.20;;;;;;5070356;28;20504;-81
2023/12/03 09:56:36;;;;;;;10.60;9.10;;;11.90;72.10;;;;;;5071884;28;20600;-80
2023/12/03 09:59:02;;;;;;;12.43;10.00;;;12.80;72.00;;;;;;5070900;28;20957;-77
2023/12/03 10:01:29;;;;;;;11.07;9.20;;;12.80;68.20;;;;;;5069315;28;20426;-77
2023/12/03 10:03:55;;;;;;;11.90;10.00;;;12.80;67.00;;;;;;5053053;28;20514;-78
2023/12/03 10:06:25;;;;;;;10.00;8.20;;;13.30;67.60;;;;;;5052451;28;21024;-78
2023/12/03 10:08:51;;;;;;;8.90;7.70;;;14.00;69.10;;;;;;5068679;28;20177;-81
2023/12/03 10:11:24;;;;;;;8.77;7.87;;;14.60;66.50;;;;;;5070108;28;20459;-79
2023/12/03 10:13:50;;;;;;;7.63;6.90;;;14.80;64.60;;;;;;5068198;28;21023;-77
2023/12/03 10:16:16;;;;;;;9.73;8.30;;;15.30;63.30;;;;;;5051329;28;20425;-76
2023/12/03 10:18:43;;;;;;;11.50;9.90;;;15.50;65.10;;;;;;5071161;28;20438;-80
2023/12/03 10:21:09;;;;;;;10.00;8.83;;;15.40;65.00;;;;;;5068740;28;20861;-77
2023/12/03 10:23:36;;;;;;;19.07;13.90;;;15.50;66.30;;;;;;5069207;28;20465;-77
2023/12/03 10:26:15;;;;;;;13.97;11.00;;;15.10;63.10;;;;;;5068901;28;20433;-77
2023/12/03 10:28:41;;;;;;;10.20;9.10;;;15.20;63.60;;;;;;5068420;28;20454;-79
2023/12/03 10:31:14;;;;;;;11.93;10.13;;;14.50;61.90;;;;;;5072374;28;20425;-79
2023/12/03 10:33:43;;;;;;;12.70;10.57;;;14.50;62.70;;;;;;5071817;28;21035;-79
2023/12/03 10:36:09;;;;;;;17.93;10.80;;;13.40;59.40;;;;;;5074849;28;20420;-81
2023/12/03 10:38:36;;;;;;;14.73;11.37;;;13.80;61.00;;;;;;5073329;28;20531;-81
2023/12/03 10:41:05;;;;;;;12.40;9.27;;;12.70;59.60;;;;;;5074010;28;20473;-81
2023/12/03 10:43:33;;;;;;;14.10;10.30;;;12.50;60.70;;;;;;5073165;28;20445;-78
2023/12/03 10:45:58;;;;;;;25.13;13.20;;;11.90;60.80;;;;;;5071076;28;20461;-79
2023/12/03 10:48:27;;;;;;;18.40;10.90;;;11.50;60.30;;;;;;5068462;28;20421;-76
2023/12/03 10:50:55;;;;;;;20.50;11.07;;;11.10;61.60;;;;;;5069630;28;20191;-80
2023/12/03 10:53:22;;;;;;;37.17;15.17;;;10.20;60.60;;;;;;5067885;28;21090;-78
2023/12/03 10:55:48;;;;;;;17.10;11.30;;;9.20;61.30;;;;;;5053093;28;20438;-80
2023/12/03 10:58:19;;;;;;;12.70;10.03;;;8.50;62.40;;;;;;5053775;28;20441;-79
2023/12/03 11:00:55;;;;;;;12.50;8.67;;;8.50;65.10;;;;;;5069821;28;20465;-78
2023/12/03 11:03:31;;;;;;;13.40;10.13;;;8.40;68.10;;;;;;5070457;28;20439;-80
2023/12/03 11:06:01;;;;;;;11.70;8.43;;;8.30;70.30;;;;;;5069183;28;20453;-79
2023/12/03 11:08:28;;;;;;;12.23;8.83;;;8.10;68.60;;;;;;5069052;28;20399;-77
2023/12/03 11:10:54;;;;;;;11.07;7.87;;;7.80;70.20;;;;;;5067818;28;20433;-81
2023/12/03 11:13:21;;;;;;;11.53;9.10;;;7.80;73.90;;;;;;5069118;28;20454;-78
2023/12/03 11:15:48;;;;;;;11.53;8.40;;;7.80;74.40;;;;;;5068203;28;20497;-78
2023/12/03 11:18:16;;;;;;;11.10;7.73;;;7.80;75.60;;;;;;5066738;28;20495;-78
2023/12/03 11:20:44;;;;;;;9.60;6.70;;;8.00;77.70;;;;;;5066872;28;20491;-80
2023/12/03 11:23:47;;;;;;;11.37;8.13;;;7.80;78.90;;;;;;5070643;28;20519;-80
2023/12/03 11:26:13;;;;;;;10.73;7.87;;;7.60;81.00;;;;;;5072246;28;20491;-80
2023/12/03 11:28:55;;;;;;;14.87;10.33;;;7.40;81.70;;;;;;5070735;28;20446;-81
2023/12/03 11:31:22;;;;;;;16.00;10.73;;;7.30;83.40;;;;;;5071325;28;20416;-79
2023/12/03 11:33:59;;;;;;;25.50;15.70;;;7.10;83.20;;;;;;5071217;28;20875;-78
2023/12/03 11:36:55;;;;;;;21.97;13.90;;;7.00;86.30;;;;;;5067556;28;20401;-77
2023/12/03 11:39:21;;;;;;;19.23;12.67;;;6.40;91.00;;;;;;5059448;28;20528;-79
2023/12/03 11:41:58;;;;;;;17.80;12.50;;;5.90;93.90;;;;;;5065932;28;20438;-77
2023/12/03 11:44:25;;;;;;;18.07;13.30;;;5.60;93.90;;;;;;5070714;28;20274;-81
2023/12/03 11:47:08;;;;;;;18.30;13.00;;;5.30;96.70;;;;;;5053863;28;21064;-81
2023/12/03 11:49:36;;;;;;;15.23;11.40;;;4.70;99.30;;;;;;5070084;28;20962;-81
2023/12/03 11:52:02;;;;;;;17.20;11.83;;;4.50;99.90;;;;;;5068936;28;20441;-79
2023/12/03 11:54:49;;;;;;;20.70;13.10;;;4.20;99.90;;;;;;5066239;28;20952;-77
2023/12/03 11:57:15;;;;;;;18.17;13.10;;;4.00;99.90;;;;;;5067960;28;20448;-79
2023/12/03 11:59:45;;;;;;;17.07;11.70;;;3.60;99.90;;;;;;5067820;28;20887;-78
2023/12/03 12:02:12;;;;;;;16.50;12.07;;;3.40;99.90;;;;;;5068899;28;20434;-81
2023/12/03 12:04:38;;;;;;;15.67;11.17;;;3.00;99.90;;;;;;5070817;28;20912;-81
2023/12/03 12:07:17;;;;;;;16.07;11.37;;;2.70;99.90;;;;;;5050955;28;20432;-80
2023/12/03 12:09:45;;;;;;;15.75;11.52;;;2.50;99.90;;;;;;5050689;28;20618;-78
2023/12/03 12:12:11;;;;;;;15.30;10.90;;;2.30;99.90;;;;;;5057993;28;20572;-80
2023/12/03 12:14:37;;;;;;;15.67;9.87;;;2.10;99.90;;;;;;5074747;28;20433;-80
2023/12/03 12:17:03;;;;;;;15.90;10.80;;;1.90;99.90;;;;;;5074702;28;20495;-82
2023/12/03 12:19:29;;;;;;;14.50;9.37;;;1.70;99.90;;;;;;5074602;28;20213;-80
2023/12/03 12:21:56;;;;;;;14.13;9.40;;;1.60;99.90;;;;;;5075181;28;20236;-80
2023/12/03 12:24:23;;;;;;;13.83;9.50;;;1.40;99.90;;;;;;5072250;28;20567;-78
2023/12/03 12:26:50;;;;;;;16.15;9.52;;;1.30;99.90;;;;;;5072132;28;20495;-79
2023/12/03 12:29:16;;;;;;;14.27;9.25;;;1.10;99.90;;;;;;5071809;28;20190;-78
2023/12/03 12:31:43;;;;;;;17.65;10.18;;;1.10;99.90;;;;;;5072562;28;20203;-81